GABS/BKO METAR and TAF weather

Enter ICAO airport designator
Station Type Date Time Source
GABS METAR 2020/09/23 18:30 UTC NOAA

GABS 231830Z 36003KT 330V030 9999 FEW020 24/22 Q1014 NOSIG


Station Type Date Time Source
GABS Decoded METAR 2020/09/23 18:30 UTC NOAA

Bamako / Senou, Mali (GABS) 12-32N 007-57W 381M
Sep 23, 2020 - 02:30 PM EDT / 2020.09.23 1830 UTC
Wind: from the N (360 degrees) at 3 MPH (3 KT) (direction variable):0
Visibility: greater than 7 mile(s):0
Sky conditions: mostly clear
Temperature: 75 F (24 C)
Dew Point: 71 F (22 C)
Relative Humidity: 88%
Pressure (altimeter): 29.94 in. Hg (1014 hPa)
ob: GABS 231830Z 36003KT 330V030 9999 FEW020 24/22 Q1014 NOSIG
cycle: 18

Station Type Date Time Source
GABS TAF 2020/09/23 18:33 UTC NOAA

TAF TAF GABS 231730Z 2318/2424 22006KT 9999 FEW020 PROB40
TEMPO 2318/2324 VRB15G25KT 4500 TS SHRA SCT020 FEW033CB PROB30
TEMPO 2403/2406 2500 BR BKN010 PROB40
TEMPO 2411/2422 06020G35KT 4000 SQ TSRA SCT020 SCT033CB

Example: see airport list